ZBAA/PEK METAR and TAF weather

Enter ICAO airport designator
Station Type Date Time Source
ZBAA METAR 2020/09/22 23:00 UTC NOAA

ZBAA 222300Z 35002MPS CAVOK 17/14 Q1019 BECMG AT2340 -TSRA


Station Type Date Time Source
ZBAA Decoded METAR 2020/09/22 23:00 UTC NOAA

Beijing, China (ZBAA) 39-56N 116-17E 55M
Sep 22, 2020 - 07:00 PM EDT / 2020.09.22 2300 UTC
Wind: from the N (350 degrees) at 4 MPH (4 KT):0
Visibility: greater than 7 mile(s):0
Temperature: 62 F (17 C)
Dew Point: 57 F (14 C)
Relative Humidity: 82%
Pressure (altimeter): 30.09 in. Hg (1019 hPa)
ob: ZBAA 222300Z 35002MPS CAVOK 17/14 Q1019 BECMG AT2340 -TSRA
cycle: 23

Station Type Date Time Source
ZBAA TAF 2020/09/22 18:49 UTC NOAA

TAF
AMD ZBAA 221941Z 2218/2318 14004MPS 5000 -RA BR NSC TX22/2307Z TN17/2221Z
TEMPO 2222/2302 TSRA SCT033CB BKN040

Example: see airport list